sensor_id;sensor_type;location;lat;lon;timestamp;pressure;altitude;pressure_sealevel;temperature;humidity
72525;BME280;60547;48.502;8.996;2022-10-16T00:00:42;97795.66;;;13.92;95.20
72525;BME280;60547;48.502;8.996;2022-10-16T00:03:08;97798.91;;;13.90;95.20
72525;BME280;60547;48.502;8.996;2022-10-16T00:05:42;97801.09;;;13.95;95.03
72525;BME280;60547;48.502;8.996;2022-10-16T00:08:09;97796.88;;;13.90;94.92
72525;BME280;60547;48.502;8.996;2022-10-16T00:10:35;97803.41;;;13.87;95.10
72525;BME280;60547;48.502;8.996;2022-10-16T00:13:01;97794.97;;;13.78;95.56
72525;BME280;60547;48.502;8.996;2022-10-16T00:15:26;97807.72;;;13.79;95.03
72525;BME280;60547;48.502;8.996;2022-10-16T00:17:52;97804.28;;;13.75;95.09
72525;BME280;60547;48.502;8.996;2022-10-16T00:20:17;97810.50;;;13.70;94.97
72525;BME280;60547;48.502;8.996;2022-10-16T00:22:42;97798.34;;;13.64;94.94
72525;BME280;60547;48.502;8.996;2022-10-16T00:25:08;97809.06;;;13.66;94.95
72525;BME280;60547;48.502;8.996;2022-10-16T00:27:34;97798.63;;;13.57;95.15
72525;BME280;60547;48.502;8.996;2022-10-16T00:29:59;97792.25;;;13.56;95.45
72525;BME280;60547;48.502;8.996;2022-10-16T00:32:24;97807.47;;;13.55;94.90
72525;BME280;60547;48.502;8.996;2022-10-16T00:34:50;97805.91;;;13.54;95.01
72525;BME280;60547;48.502;8.996;2022-10-16T00:37:16;97802.94;;;13.49;95.51
72525;BME280;60547;48.502;8.996;2022-10-16T00:39:41;97811.59;;;13.42;95.46
72525;BME280;60547;48.502;8.996;2022-10-16T00:42:14;97814.41;;;13.42;95.56
72525;BME280;60547;48.502;8.996;2022-10-16T00:44:51;97805.88;;;13.45;95.80
72525;BME280;60547;48.502;8.996;2022-10-16T00:47:35;97809.00;;;13.47;95.56
72525;BME280;60547;48.502;8.996;2022-10-16T00:50:08;97816.72;;;13.43;95.52
72525;BME280;60547;48.502;8.996;2022-10-16T00:52:35;97815.00;;;13.37;95.68
72525;BME280;60547;48.502;8.996;2022-10-16T00:55:03;97818.09;;;13.39;95.87
72525;BME280;60547;48.502;8.996;2022-10-16T00:57:29;97813.75;;;13.38;95.96
72525;BME280;60547;48.502;8.996;2022-10-16T00:59:55;97816.09;;;13.39;96.11
72525;BME280;60547;48.502;8.996;2022-10-16T01:02:21;97823.69;;;13.39;96.05
72525;BME280;60547;48.502;8.996;2022-10-16T01:04:51;97823.06;;;13.35;95.85
72525;BME280;60547;48.502;8.996;2022-10-16T01:10:30;97827.59;;;13.41;96.26
72525;BME280;60547;48.502;8.996;2022-10-16T01:13:11;97829.75;;;13.37;96.19
72525;BME280;60547;48.502;8.996;2022-10-16T01:15:44;97832.84;;;13.39;96.31
72525;BME280;60547;48.502;8.996;2022-10-16T01:18:23;97825.84;;;13.35;96.05
72525;BME280;60547;48.502;8.996;2022-10-16T01:21:04;97816.38;;;13.32;95.95
72525;BME280;60547;48.502;8.996;2022-10-16T01:32:20;97829.22;;;13.30;96.71
72525;BME280;60547;48.502;8.996;2022-10-16T01:35:02;97822.22;;;13.25;96.53
72525;BME280;60547;48.502;8.996;2022-10-16T01:37:36;97824.88;;;13.29;96.79
72525;BME280;60547;48.502;8.996;2022-10-16T01:40:07;97826.13;;;13.28;96.93
72525;BME280;60547;48.502;8.996;2022-10-16T01:42:38;97823.66;;;13.30;96.75
72525;BME280;60547;48.502;8.996;2022-10-16T01:45:06;97818.97;;;13.27;97.15
72525;BME280;60547;48.502;8.996;2022-10-16T01:47:33;97816.63;;;13.25;97.12
72525;BME280;60547;48.502;8.996;2022-10-16T01:50:02;97827.81;;;13.25;96.93
72525;BME280;60547;48.502;8.996;2022-10-16T01:52:32;97831.69;;;13.28;97.03
72525;BME280;60547;48.502;8.996;2022-10-16T01:55:00;97825.97;;;13.31;97.36
72525;BME280;60547;48.502;8.996;2022-10-16T01:57:28;97826.13;;;13.28;97.18
72525;BME280;60547;48.502;8.996;2022-10-16T01:59:57;97830.78;;;13.31;96.85
72525;BME280;60547;48.502;8.996;2022-10-16T02:02:26;97827.53;;;13.32;96.97
72525;BME280;60547;48.502;8.996;2022-10-16T02:04:58;97829.22;;;13.30;97.37
72525;BME280;60547;48.502;8.996;2022-10-16T02:07:26;97817.28;;;13.29;97.38
72525;BME280;60547;48.502;8.996;2022-10-16T02:09:52;97816.50;;;13.29;97.36
72525;BME280;60547;48.502;8.996;2022-10-16T02:12:26;97828.19;;;13.36;97.20
72525;BME280;60547;48.502;8.996;2022-10-16T02:14:52;97817.91;;;13.33;97.29
72525;BME280;60547;48.502;8.996;2022-10-16T02:17:19;97822.72;;;13.33;97.10
72525;BME280;60547;48.502;8.996;2022-10-16T02:19:46;97833.91;;;13.33;97.10
72525;BME280;60547;48.502;8.996;2022-10-16T02:22:39;97835.47;;;13.34;96.88
72525;BME280;60547;48.502;8.996;2022-10-16T02:25:33;97845.09;;;13.33;97.26
72525;BME280;60547;48.502;8.996;2022-10-16T02:28:04;97835.72;;;13.27;97.34
72525;BME280;60547;48.502;8.996;2022-10-16T02:30:42;97833.44;;;13.34;96.99
72525;BME280;60547;48.502;8.996;2022-10-16T02:33:12;97834.03;;;13.29;97.10
72525;BME280;60547;48.502;8.996;2022-10-16T02:35:39;97832.03;;;13.30;97.01
72525;BME280;60547;48.502;8.996;2022-10-16T02:38:07;97819.75;;;13.27;97.04
72525;BME280;60547;48.502;8.996;2022-10-16T02:40:33;97826.13;;;13.28;97.21
72525;BME280;60547;48.502;8.996;2022-10-16T02:42:59;97827.81;;;13.25;96.90
72525;BME280;60547;48.502;8.996;2022-10-16T02:45:25;97836.38;;;13.31;97.07
72525;BME280;60547;48.502;8.996;2022-10-16T02:47:51;97836.50;;;13.27;96.96
72525;BME280;60547;48.502;8.996;2022-10-16T02:50:16;97823.59;;;13.20;97.13
72525;BME280;60547;48.502;8.996;2022-10-16T02:52:41;97828.84;;;13.18;97.08
72525;BME280;60547;48.502;8.996;2022-10-16T02:55:07;97839.91;;;13.22;96.96
72525;BME280;60547;48.502;8.996;2022-10-16T02:57:33;97828.94;;;13.15;97.37
72525;BME280;60547;48.502;8.996;2022-10-16T02:59:58;97821.47;;;13.12;97.20
72525;BME280;60547;48.502;8.996;2022-10-16T03:02:24;97817.59;;;13.09;97.16
72525;BME280;60547;48.502;8.996;2022-10-16T03:04:49;97811.81;;;13.04;97.48
72525;BME280;60547;48.502;8.996;2022-10-16T03:07:14;97814.28;;;13.02;97.76
72525;BME280;60547;48.502;8.996;2022-10-16T03:09:40;97819.09;;;13.01;97.57
72525;BME280;60547;48.502;8.996;2022-10-16T03:12:05;97822.66;;;13.02;98.16
72525;BME280;60547;48.502;8.996;2022-10-16T03:14:31;97826.09;;;13.06;97.73
72525;BME280;60547;48.502;8.996;2022-10-16T03:16:57;97840.38;;;13.08;98.46
72525;BME280;60547;48.502;8.996;2022-10-16T03:19:22;97827.00;;;13.03;98.07
72525;BME280;60547;48.502;8.996;2022-10-16T03:21:48;97831.03;;;13.02;97.95
72525;BME280;60547;48.502;8.996;2022-10-16T03:24:13;97835.25;;;13.06;97.92
72525;BME280;60547;48.502;8.996;2022-10-16T03:26:38;97831.81;;;13.02;97.97
72525;BME280;60547;48.502;8.996;2022-10-16T03:29:04;97834.28;;;13.00;98.21
72525;BME280;60547;48.502;8.996;2022-10-16T03:31:30;97840.66;;;13.01;97.84
72525;BME280;60547;48.502;8.996;2022-10-16T03:33:55;97839.09;;;13.00;97.94
72525;BME280;60547;48.502;8.996;2022-10-16T03:36:21;97839.53;;;12.98;98.09
72525;BME280;60547;48.502;8.996;2022-10-16T03:38:46;97848.56;;;13.02;97.98
72525;BME280;60547;48.502;8.996;2022-10-16T03:41:11;97839.22;;;12.96;98.01
72525;BME280;60547;48.502;8.996;2022-10-16T03:43:37;97844.22;;;13.01;98.30
72525;BME280;60547;48.502;8.996;2022-10-16T03:46:02;97841.56;;;12.98;98.41
72525;BME280;60547;48.502;8.996;2022-10-16T03:48:28;97840.13;;;12.93;98.16
72525;BME280;60547;48.502;8.996;2022-10-16T03:50:54;97846.38;;;12.97;97.97
72525;BME280;60547;48.502;8.996;2022-10-16T03:53:20;97846.50;;;12.93;97.91
72525;BME280;60547;48.502;8.996;2022-10-16T03:55:45;97856.88;;;12.93;98.26
72525;BME280;60547;48.502;8.996;2022-10-16T03:58:11;97855.66;;;12.94;98.23
72525;BME280;60547;48.502;8.996;2022-10-16T04:00:44;97849.09;;;12.88;98.17
72525;BME280;60547;48.502;8.996;2022-10-16T04:03:10;97852.53;;;12.92;98.00
72525;BME280;60547;48.502;8.996;2022-10-16T04:05:36;97850.19;;;12.90;98.06
72525;BME280;60547;48.502;8.996;2022-10-16T04:08:02;97857.53;;;12.97;97.65
72525;BME280;60547;48.502;8.996;2022-10-16T04:10:27;97859.88;;;12.99;97.77
72525;BME280;60547;48.502;8.996;2022-10-16T04:12:53;97856.09;;;12.92;97.54
72525;BME280;60547;48.502;8.996;2022-10-16T04:15:25;97861.25;;;12.94;98.10
72525;BME280;60547;48.502;8.996;2022-10-16T04:17:50;97850.06;;;12.94;97.96
72525;BME280;60547;48.502;8.996;2022-10-16T04:20:16;97844.47;;;12.94;97.78
72525;BME280;60547;48.502;8.996;2022-10-16T04:22:43;97844.94;;;12.92;97.74
72525;BME280;60547;48.502;8.996;2022-10-16T04:25:08;97849.16;;;12.97;97.54
72525;BME280;60547;48.502;8.996;2022-10-16T04:27:33;97847.84;;;12.89;97.90
72525;BME280;60547;48.502;8.996;2022-10-16T04:29:59;97842.28;;;12.89;98.04
72525;BME280;60547;48.502;8.996;2022-10-16T04:32:26;97845.06;;;12.89;98.17
72525;BME280;60547;48.502;8.996;2022-10-16T04:34:51;97846.28;;;12.88;98.13
72525;BME280;60547;48.502;8.996;2022-10-16T04:37:17;97839.41;;;12.80;98.43
72525;BME280;60547;48.502;8.996;2022-10-16T04:39:42;97850.66;;;12.89;98.07
72525;BME280;60547;48.502;8.996;2022-10-16T04:42:07;97850.91;;;12.82;98.13
72525;BME280;60547;48.502;8.996;2022-10-16T04:44:33;97851.69;;;12.82;98.18
72525;BME280;60547;48.502;8.996;2022-10-16T04:46:58;97853.38;;;12.80;98.19
72525;BME280;60547;48.502;8.996;2022-10-16T04:49:23;97862.06;;;12.82;98.40
72525;BME280;60547;48.502;8.996;2022-10-16T04:51:49;97863.75;;;12.79;98.55
72525;BME280;60547;48.502;8.996;2022-10-16T04:54:14;97875.59;;;12.83;98.40
72525;BME280;60547;48.502;8.996;2022-10-16T04:56:40;97864.53;;;12.80;98.22
72525;BME280;60547;48.502;8.996;2022-10-16T04:59:12;97862.97;;;12.79;97.97
72525;BME280;60547;48.502;8.996;2022-10-16T05:01:38;97874.16;;;12.79;97.71
72525;BME280;60547;48.502;8.996;2022-10-16T05:04:03;97875.38;;;12.78;97.88
72525;BME280;60547;48.502;8.996;2022-10-16T05:06:32;97880.63;;;12.76;97.40
72525;BME280;60547;48.502;8.996;2022-10-16T05:08:57;97875.94;;;12.73;97.71
72525;BME280;60547;48.502;8.996;2022-10-16T05:11:23;97882.84;;;12.81;97.09
72525;BME280;60547;48.502;8.996;2022-10-16T05:13:48;97876.84;;;12.70;97.67
72525;BME280;60547;48.502;8.996;2022-10-16T05:16:13;97875.94;;;12.73;97.55
72525;BME280;60547;48.502;8.996;2022-10-16T05:18:39;97878.53;;;12.67;97.32
72525;BME280;60547;48.502;8.996;2022-10-16T05:21:04;97878.75;;;12.73;97.55
72525;BME280;60547;48.502;8.996;2022-10-16T05:23:30;97864.69;;;12.64;97.28
72525;BME280;60547;48.502;8.996;2022-10-16T05:25:57;97881.53;;;12.73;97.32
72525;BME280;60547;48.502;8.996;2022-10-16T05:28:24;97875.53;;;12.61;97.28
72525;BME280;60547;48.502;8.996;2022-10-16T05:30:50;97876.00;;;12.60;97.19
72525;BME280;60547;48.502;8.996;2022-10-16T05:33:15;97874.56;;;12.55;97.44
72525;BME280;60547;48.502;8.996;2022-10-16T05:35:40;97878.25;;;12.52;97.13
72525;BME280;60547;48.502;8.996;2022-10-16T05:38:06;97896.56;;;12.53;97.82
72525;BME280;60547;48.502;8.996;2022-10-16T05:40:31;97895.00;;;12.52;97.58
72525;BME280;60547;48.502;8.996;2022-10-16T05:42:56;97902.13;;;12.53;97.51
72525;BME280;60547;48.502;8.996;2022-10-16T05:45:22;97897.44;;;12.50;97.87
72525;BME280;60547;48.502;8.996;2022-10-16T05:47:47;97901.81;;;12.51;97.61
72525;BME280;60547;48.502;8.996;2022-10-16T05:50:13;97895.22;;;12.45;97.97
72525;BME280;60547;48.502;8.996;2022-10-16T05:52:38;97898.91;;;12.55;97.67
72525;BME280;60547;48.502;8.996;2022-10-16T05:55:04;97909.16;;;12.58;97.57
72525;BME280;60547;48.502;8.996;2022-10-16T05:57:29;97911.63;;;12.56;97.66
72525;BME280;60547;48.502;8.996;2022-10-16T05:59:55;97917.09;;;12.59;97.67
72525;BME280;60547;48.502;8.996;2022-10-16T06:02:20;97918.88;;;12.53;97.70
72525;BME280;60547;48.502;8.996;2022-10-16T06:04:45;97924.47;;;12.53;97.59
72525;BME280;60547;48.502;8.996;2022-10-16T06:07:11;97918.56;;;12.51;97.99
72525;BME280;60547;48.502;8.996;2022-10-16T06:09:36;97928.25;;;12.59;97.57
72525;BME280;60547;48.502;8.996;2022-10-16T06:12:02;97927.59;;;12.55;97.42
72525;BME280;60547;48.502;8.996;2022-10-16T06:14:27;97931.16;;;12.56;97.54
72525;BME280;60547;48.502;8.996;2022-10-16T06:16:52;97925.13;;;12.57;97.45
72525;BME280;60547;48.502;8.996;2022-10-16T06:19:18;97923.22;;;12.54;97.45
72525;BME280;60547;48.502;8.996;2022-10-16T06:21:46;97929.81;;;12.60;97.34
72525;BME280;60547;48.502;8.996;2022-10-16T06:24:12;97930.34;;;12.68;97.38
72525;BME280;60547;48.502;8.996;2022-10-16T06:26:37;97936.16;;;12.74;97.32
72525;BME280;60547;48.502;8.996;2022-10-16T06:29:03;97933.34;;;12.74;97.88
72525;BME280;60547;48.502;8.996;2022-10-16T06:31:29;97941.94;;;12.79;97.86
72525;BME280;60547;48.502;8.996;2022-10-16T06:33:56;97939.38;;;12.85;97.77
72525;BME280;60547;48.502;8.996;2022-10-16T06:36:22;97948.72;;;12.91;98.02
72525;BME280;60547;48.502;8.996;2022-10-16T06:38:48;97954.84;;;12.99;97.38
72525;BME280;60547;48.502;8.996;2022-10-16T06:41:19;97954.06;;;12.98;97.10
72525;BME280;60547;48.502;8.996;2022-10-16T06:43:45;97960.19;;;13.06;96.95
72525;BME280;60547;48.502;8.996;2022-10-16T06:46:13;97962.53;;;13.07;97.21
72525;BME280;60547;48.502;8.996;2022-10-16T06:48:39;97964.53;;;13.07;97.12
72525;BME280;60547;48.502;8.996;2022-10-16T06:51:08;97957.84;;;13.04;97.41
72525;BME280;60547;48.502;8.996;2022-10-16T06:53:35;97965.66;;;13.09;97.02
72525;BME280;60547;48.502;8.996;2022-10-16T06:56:09;97967.22;;;13.10;97.20
72525;BME280;60547;48.502;8.996;2022-10-16T06:58:35;97969.56;;;13.12;97.25
72525;BME280;60547;48.502;8.996;2022-10-16T07:01:01;97974.69;;;13.13;97.76
72525;BME280;60547;48.502;8.996;2022-10-16T07:03:26;97977.81;;;13.15;97.35
72525;BME280;60547;48.502;8.996;2022-10-16T07:05:51;97975.28;;;13.08;98.14
72525;BME280;60547;48.502;8.996;2022-10-16T07:08:17;97983.41;;;13.15;97.90
72525;BME280;60547;48.502;8.996;2022-10-16T07:10:42;97994.03;;;13.20;97.56
72525;BME280;60547;48.502;8.996;2022-10-16T07:13:07;97996.28;;;13.13;97.39
72525;BME280;60547;48.502;8.996;2022-10-16T07:15:33;97991.25;;;13.20;97.78
72525;BME280;60547;48.502;8.996;2022-10-16T07:17:59;98006.53;;;13.29;97.40
72525;BME280;60547;48.502;8.996;2022-10-16T07:20:24;98001.84;;;13.25;97.32
72525;BME280;60547;48.502;8.996;2022-10-16T07:22:50;98004.41;;;13.33;97.73
72525;BME280;60547;48.502;8.996;2022-10-16T07:25:15;98000.50;;;13.30;97.41
72525;BME280;60547;48.502;8.996;2022-10-16T07:27:41;98008.75;;;13.34;97.17
72525;BME280;60547;48.502;8.996;2022-10-16T07:30:06;98024.03;;;13.42;96.82
72525;BME280;60547;48.502;8.996;2022-10-16T07:32:32;98034.78;;;13.43;97.04
72525;BME280;60547;48.502;8.996;2022-10-16T07:34:57;98038.16;;;13.38;97.80
72525;BME280;60547;48.502;8.996;2022-10-16T07:37:22;98029.97;;;13.44;96.41
72525;BME280;60547;48.502;8.996;2022-10-16T07:39:48;98046.03;;;13.52;96.17
72525;BME280;60547;48.502;8.996;2022-10-16T07:42:13;98032.25;;;13.58;95.73
72525;BME280;60547;48.502;8.996;2022-10-16T07:44:39;98037.41;;;13.60;96.47
72525;BME280;60547;48.502;8.996;2022-10-16T07:47:05;98041.16;;;13.66;96.19
72525;BME280;60547;48.502;8.996;2022-10-16T07:49:33;98039.88;;;13.79;96.05
72525;BME280;60547;48.502;8.996;2022-10-16T07:51:58;98036.50;;;13.84;95.03
72525;BME280;60547;48.502;8.996;2022-10-16T07:54:23;98046.00;;;13.87;95.57
72525;BME280;60547;48.502;8.996;2022-10-16T07:56:49;98050.56;;;13.94;95.24
72525;BME280;60547;48.502;8.996;2022-10-16T07:59:14;98057.72;;;13.95;95.20
72525;BME280;60547;48.502;8.996;2022-10-16T08:01:40;98060.84;;;13.97;95.11
72525;BME280;60547;48.502;8.996;2022-10-16T08:04:08;98058.22;;;14.02;95.00
72525;BME280;60547;48.502;8.996;2022-10-16T08:06:39;98044.19;;;13.93;95.20
72525;BME280;60547;48.502;8.996;2022-10-16T08:09:06;98036.63;;;14.03;94.83
72525;BME280;60547;48.502;8.996;2022-10-16T08:11:32;98051.00;;;14.14;94.60
72525;BME280;60547;48.502;8.996;2022-10-16T08:13:58;98055.41;;;14.24;94.16
72525;BME280;60547;48.502;8.996;2022-10-16T08:16:23;98057.44;;;14.23;93.98
72525;BME280;60547;48.502;8.996;2022-10-16T08:18:49;98068.69;;;14.33;95.84
72525;BME280;60547;48.502;8.996;2022-10-16T08:21:18;98065.88;;;14.33;93.98
72525;BME280;60547;48.502;8.996;2022-10-16T08:23:43;98058.91;;;14.37;94.37
72525;BME280;60547;48.502;8.996;2022-10-16T08:26:10;98067.06;;;14.44;93.94
72525;BME280;60547;48.502;8.996;2022-10-16T08:28:36;98060.38;;;14.42;93.36
72525;BME280;60547;48.502;8.996;2022-10-16T08:31:20;98073.91;;;14.43;93.02
72525;BME280;60547;48.502;8.996;2022-10-16T08:33:46;98086.06;;;14.49;93.74
72525;BME280;60547;48.502;8.996;2022-10-16T08:36:13;98079.16;;;14.63;93.24
72525;BME280;60547;48.502;8.996;2022-10-16T08:38:39;98091.81;;;14.77;92.35
72525;BME280;60547;48.502;8.996;2022-10-16T08:47:08;98093.97;;;14.73;92.19
72525;BME280;60547;48.502;8.996;2022-10-16T08:49:41;98089.63;;;14.72;91.91
72525;BME280;60547;48.502;8.996;2022-10-16T08:52:12;98089.63;;;14.72;91.14
72525;BME280;60547;48.502;8.996;2022-10-16T08:54:43;98084.97;;;14.78;90.78
72525;BME280;60547;48.502;8.996;2022-10-16T08:57:17;98081.56;;;14.83;90.78
72525;BME280;60547;48.502;8.996;2022-10-16T08:59:45;98090.94;;;14.89;90.78
72525;BME280;60547;48.502;8.996;2022-10-16T09:04:58;98087.84;;;14.96;92.10
72525;BME280;60547;48.502;8.996;2022-10-16T09:10:28;98097.59;;;15.23;90.73
72525;BME280;60547;48.502;8.996;2022-10-16T09:23:41;98103.47;;;15.74;88.24
72525;BME280;60547;48.502;8.996;2022-10-16T09:26:11;98104.88;;;15.78;87.13
72525;BME280;60547;48.502;8.996;2022-10-16T09:28:37;98109.72;;;15.87;87.41
72525;BME280;60547;48.502;8.996;2022-10-16T09:31:03;98108.00;;;16.08;87.89
72525;BME280;60547;48.502;8.996;2022-10-16T09:33:36;98109.22;;;16.34;86.83
72525;BME280;60547;48.502;8.996;2022-10-16T09:36:05;98110.88;;;16.59;85.72
72525;BME280;60547;48.502;8.996;2022-10-16T09:38:34;98112.00;;;16.53;85.90
72525;BME280;60547;48.502;8.996;2022-10-16T09:41:02;98103.75;;;16.40;86.07
72525;BME280;60547;48.502;8.996;2022-10-16T09:43:34;98098.78;;;16.26;85.62
72525;BME280;60547;48.502;8.996;2022-10-16T09:46:07;98107.34;;;16.22;88.03
72525;BME280;60547;48.502;8.996;2022-10-16T09:48:36;98105.50;;;16.19;86.90
72525;BME280;60547;48.502;8.996;2022-10-16T09:51:04;98104.25;;;16.20;87.42
72525;BME280;60547;48.502;8.996;2022-10-16T09:53:46;98110.94;;;16.23;88.02
72525;BME280;60547;48.502;8.996;2022-10-16T09:56:21;98105.19;;;16.17;87.39
72525;BME280;60547;48.502;8.996;2022-10-16T09:58:55;98125.47;;;16.21;88.08
72525;BME280;60547;48.502;8.996;2022-10-16T10:01:24;98116.69;;;16.37;87.09
72525;BME280;60547;48.502;8.996;2022-10-16T10:03:55;98115.44;;;16.38;86.14
72525;BME280;60547;48.502;8.996;2022-10-16T10:06:44;98115.59;;;16.44;86.25
72525;BME280;60547;48.502;8.996;2022-10-16T10:11:59;98113.63;;;16.87;84.92
72525;BME280;60547;48.502;8.996;2022-10-16T10:14:37;98116.78;;;17.22;86.30
72525;BME280;60547;48.502;8.996;2022-10-16T10:17:11;98107.34;;;17.34;83.34
72525;BME280;60547;48.502;8.996;2022-10-16T10:20:00;98109.69;;;17.59;85.00
72525;BME280;60547;48.502;8.996;2022-10-16T10:33:20;98110.13;;;19.38;72.11
72525;BME280;60547;48.502;8.996;2022-10-16T10:39:06;98099.09;;;19.55;69.03
72525;BME280;60547;48.502;8.996;2022-10-16T10:44:28;98094.25;;;19.76;69.51
72525;BME280;60547;48.502;8.996;2022-10-16T11:00:21;98100.25;;;21.13;62.31
72525;BME280;60547;48.502;8.996;2022-10-16T11:07:57;98085.69;;;21.68;59.42
72525;BME280;60547;48.502;8.996;2022-10-16T11:10:27;98093.47;;;21.79;61.24
72525;BME280;60547;48.502;8.996;2022-10-16T11:13:08;98074.91;;;21.78;59.71
72525;BME280;60547;48.502;8.996;2022-10-16T11:15:38;98074.75;;;21.98;56.79
72525;BME280;60547;48.502;8.996;2022-10-16T11:18:15;98081.97;;;21.99;58.20
72525;BME280;60547;48.502;8.996;2022-10-16T11:20:56;98082.59;;;22.37;56.28
72525;BME280;60547;48.502;8.996;2022-10-16T11:23:35;98082.88;;;22.39;54.24
72525;BME280;60547;48.502;8.996;2022-10-16T11:26:11;98087.03;;;22.60;54.74
72525;BME280;60547;48.502;8.996;2022-10-16T11:28:49;98080.31;;;22.52;53.82
72525;BME280;60547;48.502;8.996;2022-10-16T11:31:21;98080.56;;;22.43;56.46
72525;BME280;60547;48.502;8.996;2022-10-16T11:33:53;98083.69;;;22.67;52.94
72525;BME280;60547;48.502;8.996;2022-10-16T11:36:31;98074.19;;;22.81;52.20
72525;BME280;60547;48.502;8.996;2022-10-16T11:39:16;98072.09;;;22.99;51.58
72525;BME280;60547;48.502;8.996;2022-10-16T11:41:51;98066.41;;;23.10;52.66
72525;BME280;60547;48.502;8.996;2022-10-16T11:46:58;98074.88;;;23.60;51.77
72525;BME280;60547;48.502;8.996;2022-10-16T11:49:30;98078.19;;;23.70;50.86
72525;BME280;60547;48.502;8.996;2022-10-16T11:52:06;98073.53;;;23.67;48.98
72525;BME280;60547;48.502;8.996;2022-10-16T11:58:19;98064.78;;;23.65;48.99
72525;BME280;60547;48.502;8.996;2022-10-16T12:00:27;98068.44;;;23.37;50.75
72525;BME280;60547;48.502;8.996;2022-10-16T12:03:03;98069.22;;;23.27;52.05
72525;BME280;60547;48.502;8.996;2022-10-16T12:08:17;98056.59;;;23.11;52.06
72525;BME280;60547;48.502;8.996;2022-10-16T12:10:45;98061.72;;;23.40;50.78
72525;BME280;60547;48.502;8.996;2022-10-16T12:13:34;98061.63;;;23.74;49.71
72525;BME280;60547;48.502;8.996;2022-10-16T12:16:20;98054.38;;;23.78;50.85
72525;BME280;60547;48.502;8.996;2022-10-16T12:18:46;98063.91;;;23.87;49.25
72525;BME280;60547;48.502;8.996;2022-10-16T12:21:14;98060.59;;;23.77;48.36
72525;BME280;60547;48.502;8.996;2022-10-16T12:23:55;98060.66;;;23.60;48.92
72525;BME280;60547;48.502;8.996;2022-10-16T12:26:32;98059.53;;;23.86;48.39
72525;BME280;60547;48.502;8.996;2022-10-16T12:34:57;98054.66;;;24.33;49.36
72525;BME280;60547;48.502;8.996;2022-10-16T12:37:26;98063.59;;;24.48;47.00
72525;BME280;60547;48.502;8.996;2022-10-16T12:39:54;98045.88;;;24.31;47.52
72525;BME280;60547;48.502;8.996;2022-10-16T12:42:38;98055.91;;;24.37;46.26
72525;BME280;60547;48.502;8.996;2022-10-16T12:45:25;98045.59;;;24.34;47.95
72525;BME280;60547;48.502;8.996;2022-10-16T12:47:52;98046.00;;;24.50;48.39
72525;BME280;60547;48.502;8.996;2022-10-16T12:50:35;98035.94;;;24.43;46.71
72525;BME280;60547;48.502;8.996;2022-10-16T12:53:02;98033.63;;;24.77;46.09
72525;BME280;60547;48.502;8.996;2022-10-16T12:55:35;98040.03;;;24.83;46.62
72525;BME280;60547;48.502;8.996;2022-10-16T13:00:50;98046.25;;;24.82;45.10
72525;BME280;60547;48.502;8.996;2022-10-16T13:03:43;98053.50;;;24.47;47.05
72525;BME280;60547;48.502;8.996;2022-10-16T13:06:23;98057.28;;;24.20;45.81
72525;BME280;60547;48.502;8.996;2022-10-16T13:17:41;98060.66;;;23.60;49.82
72525;BME280;60547;48.502;8.996;2022-10-16T13:28:45;98063.44;;;23.77;48.90
72525;BME280;60547;48.502;8.996;2022-10-16T13:31:17;98057.63;;;24.05;48.59
72525;BME280;60547;48.502;8.996;2022-10-16T13:33:48;98055.78;;;24.13;50.27
72525;BME280;60547;48.502;8.996;2022-10-16T13:36:24;98063.19;;;24.33;50.02
72525;BME280;60547;48.502;8.996;2022-10-16T13:41:40;98070.66;;;23.78;49.41
72525;BME280;60547;48.502;8.996;2022-10-16T13:44:24;98060.66;;;23.55;49.64
72525;BME280;60547;48.502;8.996;2022-10-16T13:46:59;98059.13;;;23.37;50.14
72525;BME280;60547;48.502;8.996;2022-10-16T13:49:25;98055.28;;;23.34;49.49
72525;BME280;60547;48.502;8.996;2022-10-16T13:51:58;98055.03;;;23.21;51.97
72525;BME280;60547;48.502;8.996;2022-10-16T13:54:26;98053.78;;;23.11;50.65
72525;BME280;60547;48.502;8.996;2022-10-16T13:56:52;98062.31;;;22.94;52.16
72525;BME280;60547;48.502;8.996;2022-10-16T13:59:33;98065.91;;;22.95;51.77
72525;BME280;60547;48.502;8.996;2022-10-16T14:02:00;98062.56;;;22.85;50.79
72525;BME280;60547;48.502;8.996;2022-10-16T14:04:32;98061.50;;;22.77;51.87
72525;BME280;60547;48.502;8.996;2022-10-16T14:06:58;98064.34;;;22.71;52.05
72525;BME280;60547;48.502;8.996;2022-10-16T14:09:29;98073.38;;;22.64;51.91
72525;BME280;60547;48.502;8.996;2022-10-16T14:11:59;98069.50;;;22.62;52.30
72525;BME280;60547;48.502;8.996;2022-10-16T14:14:45;98068.47;;;22.59;50.70
72525;BME280;60547;48.502;8.996;2022-10-16T14:17:22;98071.03;;;22.63;51.74
72525;BME280;60547;48.502;8.996;2022-10-16T14:19:50;98064.59;;;22.62;53.03
72525;BME280;60547;48.502;8.996;2022-10-16T14:24:55;98062.00;;;22.59;53.37
72525;BME280;60547;48.502;8.996;2022-10-16T14:27:24;98065.38;;;22.57;53.91
72525;BME280;60547;48.502;8.996;2022-10-16T14:32:32;98059.69;;;22.63;53.32
72525;BME280;60547;48.502;8.996;2022-10-16T14:34:58;98065.38;;;22.57;52.21
72525;BME280;60547;48.502;8.996;2022-10-16T14:37:26;98070.81;;;23.11;52.63
72525;BME280;60547;48.502;8.996;2022-10-16T14:39:52;98068.69;;;23.34;51.57
72525;BME280;60547;48.502;8.996;2022-10-16T14:42:20;98074.13;;;23.37;52.23
72525;BME280;60547;48.502;8.996;2022-10-16T14:44:48;98070.47;;;23.48;51.20
72525;BME280;60547;48.502;8.996;2022-10-16T14:47:19;98073.53;;;23.67;52.80
72525;BME280;60547;48.502;8.996;2022-10-16T14:49:47;98083.38;;;23.60;49.05
72525;BME280;60547;48.502;8.996;2022-10-16T14:52:13;98076.44;;;23.33;49.49
72525;BME280;60547;48.502;8.996;2022-10-16T14:54:40;98076.75;;;23.13;51.59
72525;BME280;60547;48.502;8.996;2022-10-16T14:57:05;98075.19;;;23.12;52.06
72525;BME280;60547;48.502;8.996;2022-10-16T14:59:42;98082.44;;;22.79;49.39
72525;BME280;60547;48.502;8.996;2022-10-16T15:02:28;98076.97;;;22.76;50.72
72525;BME280;60547;48.502;8.996;2022-10-16T15:04:54;98078.25;;;22.58;52.39